createdAt,value
2022-11-27T00:03:54.202Z,1.57
2022-11-27T00:08:58.452Z,1.57
2022-11-27T00:14:01.388Z,1.61
2022-11-27T00:19:04.130Z,1.62
2022-11-27T00:24:07.960Z,1.65
2022-11-27T00:29:10.531Z,1.67
2022-11-27T00:34:13.105Z,1.66
2022-11-27T00:39:15.711Z,1.65
2022-11-27T00:44:18.347Z,1.65
2022-11-27T00:49:20.831Z,1.65
2022-11-27T00:54:23.441Z,1.66
2022-11-27T00:59:26.026Z,1.67
2022-11-27T01:04:29.159Z,1.69
2022-11-27T01:09:31.687Z,1.72
2022-11-27T01:14:34.975Z,1.69
2022-11-27T01:19:37.709Z,1.65
2022-11-27T01:24:40.455Z,1.62
2022-11-27T01:29:43.190Z,1.61
2022-11-27T01:34:45.711Z,1.63
2022-11-27T01:39:48.387Z,1.66
2022-11-27T01:44:54.362Z,1.66
2022-11-27T01:50:05.942Z,1.64
2022-11-27T01:55:18.833Z,1.63
2022-11-27T02:00:22.489Z,1.59
2022-11-27T02:05:28.591Z,1.51
2022-11-27T02:10:41.113Z,1.52
2022-11-27T02:15:51.646Z,1.57
2022-11-27T02:21:02.625Z,1.61
2022-11-27T02:26:17.941Z,1.56
2022-11-27T02:31:32.604Z,1.57
2022-11-27T02:36:36.496Z,1.61
2022-11-27T02:41:47.541Z,1.65
2022-11-27T02:46:50.424Z,1.59
2022-11-27T02:51:57.658Z,1.51
2022-11-27T02:57:03.696Z,1.44
2022-11-27T03:02:10.717Z,1.43
2022-11-27T03:07:20.110Z,1.49
2022-11-27T03:12:22.886Z,1.52
2022-11-27T03:17:28.322Z,1.57
2022-11-27T03:22:31.646Z,1.56
2022-11-27T03:27:43.291Z,1.54
2022-11-27T03:32:45.872Z,1.52
2022-11-27T03:37:48.611Z,1.54
2022-11-27T03:43:03.620Z,1.58
2022-11-27T03:48:12.054Z,1.61
2022-11-27T03:53:25.749Z,1.61
2022-11-27T03:58:36.862Z,1.63
2022-11-27T04:03:39.505Z,1.59
2022-11-27T04:08:42.789Z,1.55
2022-11-27T04:13:45.305Z,1.50
2022-11-27T04:18:47.800Z,1.51
2022-11-27T04:23:50.591Z,1.49
2022-11-27T04:28:53.098Z,1.51
2022-11-27T04:33:55.757Z,1.50
2022-11-27T04:38:58.292Z,1.48
2022-11-27T04:44:00.850Z,1.52
2022-11-27T04:49:03.566Z,1.54
2022-11-27T04:54:06.377Z,1.58
2022-11-27T04:59:08.915Z,1.61
2022-11-27T05:04:11.407Z,1.66
2022-11-27T05:09:15.073Z,1.71
2022-11-27T05:14:18.244Z,1.74
2022-11-27T05:19:22.957Z,1.77
2022-11-27T05:24:28.321Z,1.83
2022-11-27T05:29:31.026Z,1.82
2022-11-27T05:35:05.978Z,1.82
2022-11-27T05:40:08.967Z,1.83
2022-11-27T05:45:11.544Z,1.85
2022-11-27T05:50:14.087Z,1.87
2022-11-27T05:55:16.700Z,1.85
2022-11-27T06:00:19.704Z,1.80
2022-11-27T06:05:22.872Z,1.78
2022-11-27T06:10:25.377Z,1.74
2022-11-27T06:15:27.872Z,1.73
2022-11-27T06:20:30.435Z,1.74
2022-11-27T06:25:32.996Z,1.79
2022-11-27T06:30:37.711Z,1.82
2022-11-27T06:35:40.173Z,1.82
2022-11-27T06:40:42.664Z,1.83
2022-11-27T06:45:55.414Z,1.86
2022-11-27T06:51:02.107Z,1.88
2022-11-27T06:56:07.225Z,1.90
2022-11-27T07:01:15.066Z,1.94
2022-11-27T07:06:22.173Z,1.98
2022-11-27T07:11:27.497Z,2.05
2022-11-27T07:16:33.901Z,2.12
2022-11-27T07:21:38.113Z,2.22
2022-11-27T07:26:40.659Z,2.32
2022-11-27T07:31:43.288Z,2.43
2022-11-27T07:36:45.860Z,2.44
2022-11-27T07:41:48.334Z,2.43
2022-11-27T07:46:51.123Z,2.43
2022-11-27T07:51:53.713Z,2.41
2022-11-27T07:56:56.201Z,2.42
2022-11-27T08:01:58.815Z,2.44
2022-11-27T08:07:01.359Z,2.53
2022-11-27T08:12:04.874Z,2.66
2022-11-27T08:17:07.461Z,2.65
2022-11-27T08:22:13.707Z,2.67
2022-11-27T08:27:16.498Z,2.71
2022-11-27T08:32:21.410Z,2.75
2022-11-27T08:37:24.174Z,2.84
2022-11-27T08:42:26.866Z,2.91
2022-11-27T08:47:29.408Z,2.98
2022-11-27T08:52:32.090Z,3.09
2022-11-27T08:57:34.765Z,3.17
2022-11-27T09:02:37.283Z,3.27
2022-11-27T09:07:41.023Z,3.31
2022-11-27T09:12:45.138Z,3.33
2022-11-27T09:17:49.772Z,3.46
2022-11-27T09:22:52.233Z,3.60
2022-11-27T09:27:54.800Z,3.75
2022-11-27T09:32:57.413Z,3.90
2022-11-27T09:38:00.179Z,4.02
2022-11-27T09:43:09.880Z,4.07
2022-11-27T09:48:21.166Z,4.11
2022-11-27T09:53:31.404Z,4.26
2022-11-27T09:58:37.014Z,4.42
2022-11-27T10:03:42.598Z,4.51
2022-11-27T10:08:55.955Z,4.58
2022-11-27T10:14:21.686Z,4.68
2022-11-27T10:19:37.309Z,4.78
2022-11-27T10:24:50.965Z,4.72
2022-11-27T10:29:57.790Z,4.59
2022-11-27T10:35:09.871Z,4.59
2022-11-27T10:40:12.539Z,4.57
2022-11-27T10:45:21.139Z,4.41
2022-11-27T10:50:23.744Z,4.15
2022-11-27T10:55:32.247Z,4.00
2022-11-27T11:00:34.737Z,4.08
2022-11-27T11:05:57.245Z,4.18
2022-11-27T11:11:03.614Z,4.20
2022-11-27T11:16:16.700Z,4.21
2022-11-27T11:21:24.819Z,4.21
2022-11-27T11:26:31.839Z,4.18
2022-11-27T11:31:37.928Z,4.18
2022-11-27T11:36:42.235Z,4.25
2022-11-27T11:41:46.022Z,4.31
2022-11-27T11:46:54.135Z,4.32
2022-11-27T11:52:05.902Z,4.27
2022-11-27T11:57:20.958Z,4.26
2022-11-27T12:02:26.539Z,4.28
2022-11-27T12:07:32.787Z,4.22
2022-11-27T12:12:45.362Z,4.26
2022-11-27T12:17:58.709Z,4.25
2022-11-27T12:23:15.883Z,4.21
2022-11-27T12:28:22.410Z,4.19
2022-11-27T12:33:40.830Z,4.21
2022-11-27T12:38:46.372Z,4.15
2022-11-27T12:43:55.757Z,4.14
2022-11-27T12:48:58.363Z,4.14
2022-11-27T12:54:06.704Z,4.13
2022-11-27T12:59:18.864Z,4.09
2022-11-27T13:04:31.104Z,4.03
2022-11-27T13:09:42.336Z,4.05
2022-11-27T13:14:52.875Z,4.06
2022-11-27T13:19:55.715Z,4.09
2022-11-27T13:25:01.727Z,4.10
2022-11-27T13:30:07.666Z,4.09
2022-11-27T13:35:16.352Z,4.08
2022-11-27T13:40:23.742Z,4.05
2022-11-27T13:45:30.151Z,4.00
2022-11-27T13:50:43.493Z,3.97
2022-11-27T13:55:52.006Z,3.95
2022-11-27T14:00:54.779Z,3.87
2022-11-27T14:05:57.884Z,3.78
2022-11-27T14:11:03.488Z,3.74
2022-11-27T14:16:28.352Z,3.77
2022-11-27T14:21:35.554Z,3.80
2022-11-27T14:26:41.624Z,3.77
2022-11-27T14:31:44.222Z,3.71
2022-11-27T14:44:15.136Z,3.71
2022-11-27T14:49:20.172Z,3.67
2022-11-27T14:54:28.375Z,3.67
2022-11-27T14:59:31.426Z,3.71
2022-11-27T15:04:36.749Z,3.69
2022-11-27T15:09:45.858Z,3.67
2022-11-27T15:14:55.649Z,3.67
2022-11-27T15:19:59.759Z,3.62
2022-11-27T15:25:05.483Z,3.64
2022-11-27T15:30:08.108Z,3.59
2022-11-27T15:35:43.413Z,3.53
2022-11-27T15:41:01.588Z,3.54
2022-11-27T15:46:08.456Z,3.53
2022-11-27T15:51:11.158Z,3.45
2022-11-27T15:56:14.254Z,3.40
2022-11-27T16:01:16.929Z,3.40
2022-11-27T16:06:23.300Z,3.41
2022-11-27T16:11:26.383Z,3.42
2022-11-27T16:16:29.934Z,3.37
2022-11-27T16:21:34.672Z,3.33
2022-11-27T16:26:38.003Z,3.33
2022-11-27T16:31:41.002Z,3.35
2022-11-27T16:36:44.138Z,3.35
2022-11-27T16:41:46.746Z,3.38
2022-11-27T16:46:50.605Z,3.36
2022-11-27T16:51:53.434Z,3.30
2022-11-27T16:56:56.338Z,3.24
2022-11-27T17:01:59.051Z,3.26
2022-11-27T17:07:01.703Z,3.27
2022-11-27T17:12:04.535Z,3.26
2022-11-27T17:17:07.024Z,3.28
2022-11-27T17:22:10.147Z,3.32
2022-11-27T17:27:14.581Z,3.33
2022-11-27T17:32:18.074Z,3.35
2022-11-27T17:37:20.704Z,3.39
2022-11-27T17:42:23.209Z,3.41
2022-11-27T17:47:25.777Z,3.49
2022-11-27T17:52:28.364Z,3.51
2022-11-27T17:57:30.839Z,3.51
2022-11-27T18:02:33.598Z,3.54
2022-11-27T18:07:36.560Z,3.54
2022-11-27T18:12:39.147Z,3.60
2022-11-27T18:17:41.606Z,3.64
2022-11-27T18:22:44.539Z,3.70
2022-11-27T18:27:47.044Z,3.76
2022-11-27T18:32:49.709Z,3.77
2022-11-27T18:37:52.180Z,3.68
2022-11-27T18:42:54.655Z,3.61
2022-11-27T18:47:57.152Z,3.57
2022-11-27T18:52:59.696Z,3.49
2022-11-27T18:58:02.278Z,3.46
2022-11-27T19:03:05.060Z,3.46
2022-11-27T19:08:08.885Z,3.51
2022-11-27T19:13:11.388Z,3.53
2022-11-27T19:18:14.449Z,3.51
2022-11-27T19:23:17.298Z,3.47
2022-11-27T19:28:19.824Z,3.42
2022-11-27T19:33:24.807Z,3.40
2022-11-27T19:38:28.124Z,3.41
2022-11-27T19:43:30.614Z,3.37
2022-11-27T19:48:35.381Z,3.40
2022-11-27T19:53:40.956Z,3.42
2022-11-27T19:58:43.741Z,3.45
2022-11-27T20:03:46.873Z,3.45
2022-11-27T20:08:50.961Z,3.45
2022-11-27T20:13:58.034Z,3.42
2022-11-27T20:19:02.051Z,3.35
2022-11-27T20:24:04.953Z,3.27
2022-11-27T20:29:07.634Z,3.28
2022-11-27T20:34:16.682Z,3.31
2022-11-27T20:39:21.523Z,3.40
2022-11-27T20:44:24.388Z,3.42
2022-11-27T20:49:26.957Z,3.44
2022-11-27T20:54:30.253Z,3.48
2022-11-27T20:59:33.599Z,3.50
2022-11-27T21:04:36.170Z,3.50
2022-11-27T21:09:38.831Z,3.56
2022-11-27T21:14:44.271Z,3.57
2022-11-27T21:19:46.778Z,3.56
2022-11-27T21:24:50.597Z,3.57
2022-11-27T21:29:53.532Z,3.57
2022-11-27T21:34:55.996Z,3.60
2022-11-27T21:39:58.488Z,3.61
2022-11-27T21:45:03.648Z,3.58
2022-11-27T21:50:06.909Z,3.58
2022-11-27T21:55:12.204Z,3.57
2022-11-27T22:00:15.190Z,3.57
2022-11-27T22:05:18.643Z,3.57
2022-11-27T22:10:21.177Z,3.58
2022-11-27T22:15:23.697Z,3.56
2022-11-27T22:20:26.222Z,3.56
2022-11-27T22:25:28.721Z,3.58
2022-11-27T22:30:33.811Z,3.58
2022-11-27T22:35:36.323Z,3.58
2022-11-27T22:40:38.877Z,3.57
2022-11-27T22:46:11.288Z,3.59
2022-11-27T22:51:13.924Z,3.62
2022-11-27T22:56:16.469Z,3.62
2022-11-27T23:01:22.825Z,3.60
2022-11-27T23:06:25.537Z,3.61
2022-11-27T23:11:28.611Z,3.63
2022-11-27T23:16:31.129Z,3.64
2022-11-27T23:21:37.233Z,3.65
2022-11-27T23:26:39.786Z,3.68
2022-11-27T23:31:42.763Z,3.69
2022-11-27T23:36:45.746Z,3.71
2022-11-27T23:41:49.391Z,3.71
2022-11-27T23:46:54.061Z,3.73
2022-11-27T23:51:57.840Z,3.72
2022-11-27T23:57:00.379Z,3.71
